Hlavní strana
METAR-TAF:

METAR-TAF

Letiště :

Rutherford County Airport (Marchman Field)

Rutherfordton, Severní Karolína, Spojené státy americké

zeměpisná šířka: 35-25-42N, zeměpisná délka: 081-56-06W, výška: 329 m

Aktuální stav počasí

Zpráva byla vytvořena před 22 minutami, v 10:40 UTC
Bezvětří
Teplota 16°C
Vlhkost vzduchu 100%
Tlak 1021 hPa
Viditelnost: 1.6 km
kouřmo

METAR: KFQD 241040Z AUTO 00000KT 1SM BR VV007 16/16 A3016 RMK AO2

Čas: 07:02 (11:02 UTC)


TAF: chybějící

Stav a předpovědi počasí z více než 4 000 letišť (zprávy METAR a TAF).

Červené a žluté tečky na mapě představují dostupné meteorologické stanice.

Když kurzor umístíte na tečku, zobrazí se název stanice.

Pak kliknutím zobrazíte stav a předpověď počasí.

Chcete-li změnit mapu, kliknutím na zelené tlačítko se znaménkem +mapu přiblížíte, kliknutím na zelené tlačítko se znaménkem – mapu oddálíte a kliknutím na zelené šipky přejdete na sousední mapy.


METAR-TAF: